Time;durP1;ratioP1;P1;durP2;ratioP2;P2;SDS_P1;SDS_P2;PMS_P1;PMS_P2;Temp;Humidity;BMP_temperature;BMP_pressure;BME280_temperature;BME280_humidity;BME280_pressure;Samples;Min_cycle;Max_cycle;Signal;HPM_P1;HPM_P2
2023/06/08 00:02:04;;;;;;;8.13;4.13;;;;;;;16.32;100.00;100073.72;5096323;28;20171;-81
2023/06/08 00:04:32;;;;;;;4.03;3.60;;;;;;;16.31;100.00;100072.03;5103601;28;20180;-78
2023/06/08 00:07:03;;;;;;;5.43;3.53;;;;;;;16.30;100.00;100072.94;5082535;28;20198;-77
2023/06/08 00:09:29;;;;;;;8.20;4.43;;;;;;;16.28;100.00;100067.78;5071549;28;20690;-77
2023/06/08 00:11:55;;;;;;;6.23;4.53;;;;;;;16.26;100.00;100069.59;5068102;28;20208;-76
2023/06/08 00:14:21;;;;;;;8.90;4.20;;;;;;;16.21;100.00;100058.44;5080628;28;20208;-77
2023/06/08 00:16:48;;;;;;;6.90;4.57;;;;;;;16.14;100.00;100051.75;5079847;28;20695;-78
2023/06/08 00:19:14;;;;;;;8.77;4.23;;;;;;;16.08;100.00;100054.56;5087597;28;20984;-80
2023/06/08 00:21:42;;;;;;;8.30;4.40;;;;;;;16.03;100.00;100065.19;5079675;28;20203;-77
2023/06/08 00:24:09;;;;;;;5.93;3.80;;;;;;;16.02;100.00;100060.03;5068166;28;20198;-78
2023/06/08 00:26:34;;;;;;;6.40;4.20;;;;;;;15.99;100.00;100056.63;5063459;28;20219;-78
2023/06/08 00:29:00;;;;;;;4.00;3.60;;;;;;;15.97;100.00;100062.78;5089356;28;20264;-77
2023/06/08 00:31:25;;;;;;;4.77;3.30;;;;;;;15.92;100.00;100057.72;5088739;28;20198;-78
2023/06/08 00:33:50;;;;;;;3.57;3.27;;;;;;;15.89;100.00;100063.03;5083926;28;20234;-80
2023/06/08 00:36:16;;;;;;;3.87;3.43;;;;;;;15.82;100.00;100059.75;5086315;28;20181;-78
2023/06/08 00:38:41;;;;;;;4.13;3.60;;;;;;;15.77;100.00;100061.69;5082116;28;20185;-77
2023/06/08 00:41:06;;;;;;;3.43;3.20;;;;;;;15.72;100.00;100063.59;5088075;28;20188;-77
2023/06/08 00:43:32;;;;;;;3.60;3.30;;;;;;;15.70;100.00;100066.28;5081057;28;20200;-77
2023/06/08 00:45:58;;;;;;;3.50;3.30;;;;;;;15.67;100.00;100062.91;5062122;28;20177;-77
2023/06/08 00:48:25;;;;;;;3.83;3.43;;;;;;;15.66;100.00;100055.97;5086603;28;20268;-77
2023/06/08 00:50:51;;;;;;;4.57;3.70;;;;;;;15.67;100.00;100062.91;5064941;28;20293;-76
2023/06/08 00:53:18;;;;;;;3.93;3.57;;;;;;;15.68;100.00;100060.25;5069116;28;20793;-77
2023/06/08 00:55:44;;;;;;;6.57;4.07;;;;;;;15.68;100.00;100059.38;5090616;28;20302;-78
2023/06/08 00:58:13;;;;;;;7.43;4.60;;;;;;;15.64;100.00;100063.88;5072440;28;20233;-78
2023/06/08 01:00:44;;;;;;;8.00;4.80;;;;;;;15.61;100.00;100063.97;5071549;28;20190;-77
2023/06/08 01:03:10;;;;;;;7.87;4.93;;;;;;;15.54;100.00;100063.31;5066839;28;20209;-77
2023/06/08 01:05:38;;;;;;;8.20;5.17;;;;;;;15.48;100.00;100057.44;5084032;28;20203;-77
2023/06/08 01:08:12;;;;;;;9.43;4.80;;;;;;;15.46;100.00;100056.66;5083965;28;20645;-76
2023/06/08 01:10:46;;;;;;;6.37;4.70;;;;;;;15.46;100.00;100057.50;5085005;28;20261;-79
2023/06/08 01:13:21;;;;;;;4.20;3.90;;;;;;;15.46;100.00;100060.13;5084530;28;20205;-77
2023/06/08 01:15:51;;;;;;;3.27;3.07;;;;;;;15.48;100.00;100057.44;5089596;28;20207;-76
2023/06/08 01:18:22;;;;;;;3.07;2.83;;;;;;;15.50;100.00;100053.88;5085312;28;20201;-79
2023/06/08 01:21:16;;;;;;;4.57;4.17;;;;;;;15.51;100.00;100066.00;5085371;28;20717;-77
2023/06/08 01:24:10;;;;;;;4.23;3.93;;;;;;;15.40;100.00;100060.31;5090673;28;20729;-77
2023/06/08 01:26:37;;;;;;;9.73;4.17;;;;;;;15.33;100.00;100056.22;5087380;28;20586;-80
2023/06/08 01:29:05;;;;;;;4.23;3.93;;;;;;;15.29;100.00;100057.22;5093050;28;20191;-77
2023/06/08 01:31:31;;;;;;;3.40;3.20;;;;;;;15.28;100.00;100061.56;5085024;28;20187;-78
2023/06/08 01:33:56;;;;;;;4.53;4.00;;;;;;;15.29;100.00;100052.00;5086058;28;20679;-77
2023/06/08 01:36:33;;;;;;;4.00;3.67;;;;;;;15.30;100.00;100049.31;5084694;28;20897;-79
2023/06/08 01:39:16;;;;;;;4.17;3.87;;;;;;;15.32;100.00;100046.69;5085781;28;20184;-76
2023/06/08 01:41:44;;;;;;;5.00;4.50;;;;;;;15.32;100.00;100051.91;5089836;28;20782;-77
2023/06/08 01:44:13;;;;;;;4.67;4.33;;;;;;;15.28;100.00;100051.13;5081669;28;20200;-77
2023/06/08 01:46:39;;;;;;;4.20;3.80;;;;;;;15.26;100.00;100039.91;5088464;28;20185;-77
2023/06/08 01:49:06;;;;;;;3.93;3.63;;;;;;;15.24;100.00;100039.94;5080558;28;20190;-78
2023/06/08 01:51:35;;;;;;;4.20;3.90;;;;;;;15.26;100.00;100042.53;5083108;28;20209;-77
2023/06/08 01:54:06;;;;;;;4.23;3.93;;;;;;;15.24;100.00;100037.34;5061646;28;20260;-77
2023/06/08 01:56:34;;;;;;;4.30;4.00;;;;;;;15.22;100.00;100041.75;5074471;28;20288;-77
2023/06/08 01:59:01;;;;;;;3.60;3.30;;;;;;;15.18;100.00;100040.16;5067984;28;20199;-78
2023/06/08 02:01:26;;;;;;;3.60;3.40;;;;;;;15.15;100.00;100036.78;5088852;28;20189;-78
2023/06/08 02:03:52;;;;;;;3.90;3.60;;;;;;;15.13;100.00;100034.22;5087330;28;20208;-76
2023/06/08 02:06:17;;;;;;;4.00;3.70;;;;;;;15.12;100.00;100039.50;5090851;28;20196;-77
2023/06/08 02:08:45;;;;;;;4.00;3.70;;;;;;;15.12;100.00;100035.13;5088191;28;20299;-77
2023/06/08 02:11:10;;;;;;;3.80;3.57;;;;;;;15.11;100.00;100037.81;5087408;28;20189;-77
2023/06/08 02:13:43;;;;;;;4.57;4.17;;;;;;;15.07;100.00;100037.03;5084947;28;20208;-79
2023/06/08 02:16:10;;;;;;;4.40;4.00;;;;;;;15.01;100.00;100038.06;5066174;28;20250;-78
2023/06/08 02:18:40;;;;;;;4.20;3.83;;;;;;;15.00;100.00;100035.53;5065276;28;20203;-77
2023/06/08 02:21:06;;;;;;;3.60;3.30;;;;;;;15.00;100.00;100044.19;5090628;28;20196;-79
2023/06/08 02:23:32;;;;;;;4.10;3.70;;;;;;;15.00;100.00;100038.97;5075125;28;20210;-78
2023/06/08 02:25:57;;;;;;;5.20;4.10;;;;;;;14.96;100.00;100037.38;5083714;28;20181;-80
2023/06/08 02:28:22;;;;;;;5.87;4.33;;;;;;;14.90;100.00;100035.78;5087072;28;20269;-78
2023/06/08 02:30:47;;;;;;;8.27;4.17;;;;;;;14.85;100.00;100047.25;5090539;28;20244;-77
2023/06/08 02:33:16;;;;;;;7.57;4.20;;;;;;;14.80;100.00;100043.97;5090471;28;20277;-77
2023/06/08 02:35:41;;;;;;;12.40;5.53;;;;;;;14.76;100.00;100040.56;5069466;28;20185;-77
2023/06/08 02:38:07;;;;;;;9.00;4.90;;;;;;;14.70;100.00;100039.00;5087565;28;20213;-77
2023/06/08 02:40:32;;;;;;;11.20;5.27;;;;;;;14.66;100.00;100034.78;5059214;28;20209;-76
2023/06/08 02:42:58;;;;;;;8.43;5.07;;;;;;;14.60;100.00;100038.41;5079763;28;20634;-79
2023/06/08 02:45:23;;;;;;;7.70;5.57;;;;;;;14.55;100.00;100034.22;5062891;28;20184;-77
2023/06/08 02:47:49;;;;;;;7.73;5.50;;;;;;;14.54;100.00;100042.94;5089825;28;21207;-76
2023/06/08 02:50:14;;;;;;;5.70;4.90;;;;;;;14.52;100.00;100036.94;5087832;28;20711;-77
2023/06/08 02:52:40;;;;;;;6.40;4.80;;;;;;;14.51;100.00;100041.28;5066705;28;20218;-80
2023/06/08 02:55:07;;;;;;;7.03;5.03;;;;;;;14.48;100.00;100039.63;5068827;28;20279;-77
2023/06/08 02:57:32;;;;;;;8.50;5.50;;;;;;;14.45;100.00;100031.91;5090509;28;20271;-77
2023/06/08 02:59:58;;;;;;;7.47;5.10;;;;;;;14.43;100.00;100035.47;5064693;28;20949;-78
2023/06/08 03:02:23;;;;;;;7.90;5.13;;;;;;;14.40;100.00;100038.16;5085529;28;20222;-76
2023/06/08 03:04:52;;;;;;;6.97;4.97;;;;;;;14.35;100.00;100038.28;5083970;28;20249;-77
2023/06/08 03:07:17;;;;;;;5.10;4.70;;;;;;;14.32;100.00;100038.38;5069340;28;20657;-77
2023/06/08 03:09:43;;;;;;;6.30;4.77;;;;;;;14.33;100.00;100042.69;5079695;28;20189;-78
2023/06/08 03:12:12;;;;;;;6.83;4.50;;;;;;;14.34;100.00;100049.59;5090632;28;20177;-78
2023/06/08 03:14:40;;;;;;;6.03;5.10;;;;;;;14.34;100.00;100041.78;5079401;28;20189;-76
2023/06/08 03:17:07;;;;;;;5.53;4.87;;;;;;;14.32;100.00;100043.56;5072249;28;20232;-78
2023/06/08 03:19:32;;;;;;;4.83;4.30;;;;;;;14.28;100.00;100037.63;5086621;28;20183;-77
2023/06/08 03:22:04;;;;;;;6.37;4.30;;;;;;;14.29;100.00;100033.25;5088382;28;20191;-77
2023/06/08 03:24:31;;;;;;;5.73;5.17;;;;;;;14.29;100.00;100041.88;5070626;28;20602;-79
2023/06/08 03:26:58;;;;;;;5.27;4.83;;;;;;;14.31;100.00;100034.91;5063001;28;20218;-77
2023/06/08 03:29:24;;;;;;;4.70;4.30;;;;;;;14.31;100.00;100034.06;5091962;28;20187;-77
2023/06/08 03:31:49;;;;;;;4.00;3.80;;;;;;;14.30;100.00;100035.78;5066350;28;20186;-80
2023/06/08 03:34:16;;;;;;;4.00;3.80;;;;;;;14.30;100.00;100043.59;5076704;28;20215;-77
2023/06/08 03:36:43;;;;;;;3.83;3.53;;;;;;;14.33;100.00;100045.28;5091610;28;20241;-77
2023/06/08 03:39:09;;;;;;;4.10;3.80;;;;;;;14.36;100.00;100040.00;5090600;28;20186;-77
2023/06/08 03:41:34;;;;;;;3.90;3.60;;;;;;;14.44;100.00;100035.41;5088337;28;20727;-77
2023/06/08 03:44:00;;;;;;;3.97;3.63;;;;;;;14.50;100.00;100034.38;5079994;28;20795;-80
2023/06/08 03:46:25;;;;;;;3.97;3.67;;;;;;;14.53;100.00;100028.22;5067909;28;20241;-79
2023/06/08 03:48:51;;;;;;;3.87;3.67;;;;;;;14.55;100.00;100035.09;5085167;28;20203;-80
2023/06/08 03:51:20;;;;;;;4.83;4.40;;;;;;;14.58;100.00;100039.34;5085675;28;20190;-79
2023/06/08 03:53:46;;;;;;;4.60;4.20;;;;;;;14.44;100.00;100037.19;5063645;28;20216;-78
2023/06/08 03:56:11;;;;;;;4.37;4.07;;;;;;;14.42;100.00;100028.56;5069924;28;20188;-77
2023/06/08 03:58:37;;;;;;;4.30;4.00;;;;;;;14.54;100.00;100032.53;5087911;28;20623;-78
2023/06/08 04:01:02;;;;;;;4.33;4.03;;;;;;;14.70;100.00;100032.97;5079916;28;20627;-77
2023/06/08 04:03:28;;;;;;;3.30;3.10;;;;;;;14.90;100.00;100040.16;5085618;28;20205;-77
2023/06/08 04:05:53;;;;;;;3.80;3.50;;;;;;;15.09;100.00;100033.50;5081296;28;20185;-77
2023/06/08 04:08:19;;;;;;;3.80;3.50;;;;;;;15.30;100.00;100030.22;5082509;28;20196;-77
2023/06/08 04:10:45;;;;;;;4.20;3.90;;;;;;;15.39;100.00;100029.91;5087803;28;20686;-77
2023/06/08 04:13:10;;;;;;;4.10;3.80;;;;;;;15.36;100.00;100028.28;5083283;28;20279;-79
2023/06/08 04:15:36;;;;;;;4.77;4.30;;;;;;;15.31;100.00;100031.94;5079668;28;21013;-80
2023/06/08 04:18:05;;;;;;;3.60;3.40;;;;;;;15.37;100.00;100026.50;5087451;28;20217;-78
2023/06/08 04:20:33;;;;;;;4.63;3.87;;;;;;;15.72;100.00;100039.28;5086920;28;20190;-77
2023/06/08 04:22:59;;;;;;;3.17;2.97;;;;;;;16.09;100.00;100038.88;5078406;28;20229;-78
2023/06/08 04:25:25;;;;;;;3.80;3.60;;;;;;;16.35;100.00;100037.06;5087620;28;20182;-77
2023/06/08 04:27:52;;;;;;;4.13;3.70;;;;;;;16.43;98.67;100035.00;5079264;28;20184;-77
2023/06/08 04:30:18;;;;;;;3.93;3.73;;;;;;;16.54;98.43;100039.00;5080220;28;20303;-77
2023/06/08 04:32:43;;;;;;;3.53;3.33;;;;;;;16.57;97.34;100042.34;5088528;28;20724;-77
2023/06/08 04:35:09;;;;;;;3.80;3.57;;;;;;;16.68;96.92;100046.28;5085320;28;20181;-77
2023/06/08 04:37:35;;;;;;;4.30;3.90;;;;;;;16.93;96.68;100043.59;5084482;28;20244;-80
2023/06/08 04:40:01;;;;;;;4.53;4.13;;;;;;;17.26;95.46;100053.66;5086644;28;20182;-77
2023/06/08 04:42:27;;;;;;;3.77;3.50;;;;;;;17.70;93.67;100049.25;5066470;28;20446;-78
2023/06/08 04:44:53;;;;;;;4.50;4.20;;;;;;;17.72;92.09;100063.94;5086713;28;20185;-78
2023/06/08 04:47:19;;;;;;;4.43;4.03;;;;;;;17.80;90.87;100053.16;5087551;28;20179;-79
2023/06/08 04:49:45;;;;;;;4.53;4.13;;;;;;;18.27;89.64;100054.66;5082778;28;20206;-79
2023/06/08 04:52:13;;;;;;;3.93;3.57;;;;;;;18.39;89.94;100055.84;5081308;28;20656;-76
2023/06/08 04:54:38;;;;;;;3.93;3.63;;;;;;;18.17;90.54;100055.97;5080945;28;20343;-77
2023/06/08 04:57:08;;;;;;;5.00;4.50;;;;;;;17.73;91.25;100059.59;5090060;28;20283;-78
2023/06/08 04:59:35;;;;;;;5.00;4.60;;;;;;;17.17;94.91;100061.84;5071767;28;20262;-76
2023/06/08 05:02:01;;;;;;;4.40;4.00;;;;;;;17.17;95.27;100065.31;5082486;28;20822;-79
2023/06/08 05:04:26;;;;;;;4.70;4.37;;;;;;;17.05;96.03;100077.09;5089243;28;20922;-79
2023/06/08 05:06:52;;;;;;;4.67;4.30;;;;;;;16.86;97.04;100073.50;5091542;28;20174;-76
2023/06/08 05:09:17;;;;;;;4.97;4.57;;;;;;;16.98;97.18;100082.63;5087285;28;20189;-78
2023/06/08 05:11:42;;;;;;;5.60;4.77;;;;;;;17.01;98.10;100091.25;5091727;28;20616;-75
2023/06/08 05:14:10;;;;;;;4.20;3.90;;;;;;;17.09;98.51;100090.94;5087648;28;20258;-77
2023/06/08 05:16:37;;;;;;;4.60;4.20;;;;;;;17.21;98.40;100092.19;5082548;28;20197;-77
2023/06/08 05:19:03;;;;;;;4.27;3.87;;;;;;;17.32;98.55;100089.16;5071099;28;20666;-79
2023/06/08 05:21:28;;;;;;;3.87;3.57;;;;;;;17.45;98.43;100097.38;5075995;28;20227;-77
2023/06/08 05:23:53;;;;;;;4.97;4.50;;;;;;;17.58;98.55;100100.31;5084112;28;20197;-82
2023/06/08 05:26:21;;;;;;;6.00;5.50;;;;;;;17.66;98.20;100095.63;5081309;28;20194;-80
2023/06/08 05:28:46;;;;;;;5.30;4.90;;;;;;;17.70;98.58;100101.59;5066892;28;20228;-80
2023/06/08 05:31:11;;;;;;;6.97;5.27;;;;;;;17.75;98.84;100097.84;5088714;28;20690;-82
2023/06/08 05:33:37;;;;;;;4.80;4.40;;;;;;;17.81;99.07;100109.81;5081063;28;20205;-81
2023/06/08 05:36:02;;;;;;;5.00;4.60;;;;;;;17.82;98.50;100101.94;5062966;28;20257;-80
2023/06/08 05:38:28;;;;;;;6.10;5.60;;;;;;;17.80;98.40;100093.28;5080606;28;20210;-78
2023/06/08 05:40:53;;;;;;;5.70;5.30;;;;;;;17.73;99.45;100083.97;5079422;28;20198;-78
2023/06/08 05:43:18;;;;;;;6.10;5.70;;;;;;;18.03;99.19;100096.72;5082321;28;20886;-79
2023/06/08 05:45:45;;;;;;;6.27;5.77;;;;;;;18.88;97.41;100098.16;5061122;28;20194;-81
2023/06/08 05:48:11;;;;;;;5.77;5.23;;;;;;;19.90;93.65;100109.94;5060166;28;20184;-81
2023/06/08 05:50:36;;;;;;;7.40;6.80;;;;;;;19.85;90.61;100104.91;5089116;28;20188;-80
2023/06/08 05:53:01;;;;;;;6.33;5.83;;;;;;;20.33;90.26;100093.75;5092546;28;20205;-78
2023/06/08 05:55:27;;;;;;;5.63;5.23;;;;;;;20.59;88.57;100091.50;5069523;28;20185;-79
2023/06/08 05:57:52;;;;;;;5.43;4.93;;;;;;;20.29;88.78;100095.69;5083866;28;20216;-81
2023/06/08 06:00:18;;;;;;;5.50;5.03;;;;;;;20.24;89.52;100110.84;5082784;28;20233;-79
2023/06/08 06:02:44;;;;;;;4.90;4.50;;;;;;;19.89;89.95;100113.53;5086190;28;20205;-79
2023/06/08 06:05:10;;;;;;;4.60;4.20;;;;;;;19.58;88.67;100120.28;5083504;28;20189;-79
2023/06/08 06:07:36;;;;;;;3.67;3.47;;;;;;;19.52;89.78;100116.16;5081331;28;20216;-79
2023/06/08 06:10:02;;;;;;;3.60;3.40;;;;;;;19.26;90.15;100115.66;5086635;28;20239;-80
2023/06/08 06:12:28;;;;;;;4.23;3.93;;;;;;;18.80;89.05;100105.56;5083415;28;20207;-79
2023/06/08 06:14:55;;;;;;;4.63;4.33;;;;;;;18.51;90.12;100112.09;5059254;28;20196;-80
2023/06/08 06:17:20;;;;;;;4.47;4.00;;;;;;;18.41;91.02;100115.16;5081858;28;20216;-75
2023/06/08 06:19:46;;;;;;;4.93;4.53;;;;;;;18.18;91.39;100121.41;5081538;28;20192;-78
2023/06/08 06:22:11;;;;;;;4.80;4.30;;;;;;;18.00;93.10;100114.31;5076647;28;20911;-76
2023/06/08 06:24:37;;;;;;;9.30;5.93;;;;;;;17.89;97.34;100107.75;5074157;28;20221;-76
2023/06/08 06:27:03;;;;;;;5.93;5.13;;;;;;;17.92;100.00;100101.53;5074045;28;20226;-75
2023/06/08 06:29:29;;;;;;;10.50;5.93;;;;;;;17.48;100.00;100103.31;5057282;28;20188;-78
2023/06/08 06:31:54;;;;;;;6.30;5.27;;;;;;;17.24;100.00;100114.78;5091774;28;20197;-77
2023/06/08 06:34:20;;;;;;;5.43;5.03;;;;;;;17.24;100.00;100106.94;5078629;28;20207;-77
2023/06/08 06:36:46;;;;;;;5.00;4.50;;;;;;;17.29;100.00;100113.69;5079514;28;20567;-76
2023/06/08 06:39:12;;;;;;;5.70;5.20;;;;;;;17.33;100.00;100111.78;5082306;28;20227;-76
2023/06/08 06:41:38;;;;;;;5.30;4.93;;;;;;;17.34;100.00;100109.09;5073166;28;20192;-77
2023/06/08 06:44:03;;;;;;;5.83;5.43;;;;;;;17.36;100.00;100107.28;5073846;28;20209;-76
2023/06/08 06:46:29;;;;;;;6.03;5.53;;;;;;;17.29;100.00;100107.59;5075634;28;20579;-76
2023/06/08 06:48:54;;;;;;;6.30;5.80;;;;;;;17.30;100.00;100099.69;5080964;28;20211;-76
2023/06/08 06:51:19;;;;;;;6.50;6.10;;;;;;;17.27;100.00;100099.81;5073567;28;20185;-76
2023/06/08 06:53:45;;;;;;;7.33;6.57;;;;;;;17.15;100.00;100100.31;5080510;28;20211;-76
2023/06/08 06:56:10;;;;;;;6.23;5.83;;;;;;;17.18;100.00;100093.19;5082662;28;20184;-77
2023/06/08 06:58:36;;;;;;;7.63;7.03;;;;;;;17.06;100.00;100096.28;5082974;28;20213;-76
2023/06/08 07:01:01;;;;;;;6.80;6.30;;;;;;;17.07;100.00;100100.59;5072285;28;20181;-77
2023/06/08 07:03:27;;;;;;;7.17;6.57;;;;;;;17.08;100.00;100101.44;5081178;28;20595;-77
2023/06/08 07:05:58;;;;;;;7.70;6.50;;;;;;;17.18;100.00;100098.41;5080862;28;20291;-76
2023/06/08 07:08:26;;;;;;;7.60;6.90;;;;;;;17.20;100.00;100100.94;5072800;28;20265;-76
2023/06/08 07:10:51;;;;;;;8.13;7.63;;;;;;;17.28;100.00;100098.03;5080265;28;20177;-74
2023/06/08 07:13:17;;;;;;;9.57;8.73;;;;;;;17.19;100.00;100097.50;5061924;28;20741;-77
2023/06/08 07:15:42;;;;;;;10.03;9.03;;;;;;;17.24;100.00;100107.78;5080724;28;21032;-76
2023/06/08 07:18:08;;;;;;;9.70;9.00;;;;;;;17.21;100.00;100105.28;5062387;28;20304;-78
2023/06/08 07:20:33;;;;;;;9.40;8.80;;;;;;;17.09;100.00;100103.16;5059730;28;20185;-75
2023/06/08 07:22:59;;;;;;;10.23;9.40;;;;;;;17.10;100.00;100095.22;5066829;28;20200;-77
2023/06/08 07:25:24;;;;;;;11.03;10.13;;;;;;;17.20;100.00;100099.19;5065282;28;20701;-76
2023/06/08 07:27:50;;;;;;;10.17;9.47;;;;;;;17.33;100.00;100099.53;5079279;28;20181;-76
2023/06/08 07:30:15;;;;;;;10.27;9.47;;;;;;;17.50;100.00;100101.50;5061474;28;20572;-78
2023/06/08 07:32:43;;;;;;;10.07;9.17;;;;;;;17.36;100.00;100102.03;5083940;28;20206;-76
2023/06/08 07:35:09;;;;;;;9.07;8.37;;;;;;;17.45;100.00;100089.53;5079312;28;20234;-76
2023/06/08 07:37:35;;;;;;;9.27;8.67;;;;;;;17.65;100.00;100088.69;5079185;28;20205;-77
2023/06/08 07:40:00;;;;;;;9.17;8.47;;;;;;;17.76;100.00;100086.47;5077220;28;20191;-76
2023/06/08 07:42:25;;;;;;;8.57;7.77;;;;;;;17.76;100.00;100085.63;5078225;28;20211;-78
2023/06/08 07:44:51;;;;;;;7.00;6.50;;;;;;;17.85;100.00;100085.22;5059156;28;20214;-77
2023/06/08 07:47:17;;;;;;;7.10;6.53;;;;;;;18.01;100.00;100077.59;5076386;28;20181;-77
2023/06/08 07:49:42;;;;;;;7.10;6.60;;;;;;;18.21;100.00;100086.34;5072870;28;20567;-78
2023/06/08 07:52:08;;;;;;;6.73;6.23;;;;;;;18.41;100.00;100085.47;5069820;28;20186;-77
2023/06/08 07:54:33;;;;;;;6.90;6.30;;;;;;;18.51;100.00;100075.41;5073339;28;20171;-76
2023/06/08 07:56:58;;;;;;;6.07;5.63;;;;;;;18.61;100.00;100076.69;5075915;28;20293;-76
2023/06/08 07:59:24;;;;;;;5.40;5.07;;;;;;;18.70;100.00;100084.16;5076538;28;20190;-77
2023/06/08 08:01:49;;;;;;;5.50;5.10;;;;;;;18.80;100.00;100070.59;5058746;28;20242;-76
2023/06/08 08:04:15;;;;;;;5.37;4.97;;;;;;;18.88;100.00;100068.50;5072441;28;20214;-76
2023/06/08 08:06:40;;;;;;;6.00;5.50;;;;;;;18.88;100.00;100063.25;5073941;28;20862;-76
2023/06/08 08:09:06;;;;;;;6.10;5.60;;;;;;;18.69;100.00;100069.34;5073490;28;20210;-77
2023/06/08 08:11:32;;;;;;;5.73;5.10;;;;;;;18.49;100.00;100067.63;5073023;28;20181;-76
2023/06/08 08:13:58;;;;;;;5.70;5.30;;;;;;;18.34;100.00;100068.34;5078026;28;20630;-74
2023/06/08 08:16:23;;;;;;;6.60;5.43;;;;;;;18.27;100.00;100057.28;5072641;28;20230;-76
2023/06/08 08:18:50;;;;;;;5.47;5.03;;;;;;;18.41;100.00;100064.50;5075325;28;20259;-77
2023/06/08 08:21:15;;;;;;;5.17;4.83;;;;;;;18.54;100.00;100054.31;5075321;28;20278;-76
2023/06/08 08:23:40;;;;;;;5.13;4.60;;;;;;;18.64;100.00;100060.81;5076291;28;20217;-76
2023/06/08 08:26:06;;;;;;;4.40;4.00;;;;;;;18.89;100.00;100062.31;5075527;28;22227;-77
2023/06/08 08:28:33;;;;;;;5.13;4.77;;;;;;;18.97;99.40;100056.75;5079111;28;20226;-76
2023/06/08 08:31:00;;;;;;;4.73;4.43;;;;;;;19.24;99.41;100061.56;5077585;28;20361;-76
2023/06/08 08:33:26;;;;;;;5.27;4.87;;;;;;;19.39;98.35;100049.47;5074117;28;20292;-76
2023/06/08 08:35:52;;;;;;;5.50;5.00;;;;;;;19.46;95.52;100053.50;5076740;28;20279;-76
2023/06/08 08:38:17;;;;;;;5.17;4.63;;;;;;;19.57;94.55;100059.06;5074855;28;20220;-76
2023/06/08 08:40:43;;;;;;;6.03;5.47;;;;;;;19.93;95.07;100060.75;5075987;28;20185;-77
2023/06/08 08:43:37;;;;;;;5.37;4.97;;;;;;;20.18;94.15;100051.59;5080254;28;20266;-75
2023/06/08 08:46:06;;;;;;;5.50;5.00;;;;;;;20.86;93.73;100055.00;5078776;28;20177;-76
2023/06/08 08:48:35;;;;;;;5.27;4.87;;;;;;;21.05;90.63;100049.53;5077302;28;20906;-77
2023/06/08 08:51:00;;;;;;;5.30;4.90;;;;;;;21.18;91.09;100054.97;5077494;28;20674;-77
2023/06/08 08:53:30;;;;;;;4.67;4.27;;;;;;;20.48;88.90;100050.03;5075441;28;20291;-77
2023/06/08 08:55:57;;;;;;;5.97;5.47;;;;;;;20.85;88.68;100042.78;5060431;28;20194;-77
2023/06/08 08:58:23;;;;;;;5.00;4.60;;;;;;;21.36;86.63;100045.16;5074062;28;20221;-76
2023/06/08 09:00:48;;;;;;;4.60;4.30;;;;;;;21.60;85.84;100040.25;5061771;28;20609;-75
2023/06/08 09:03:15;;;;;;;4.90;4.60;;;;;;;21.97;85.59;100044.28;5057729;28;20202;-76
2023/06/08 09:05:44;;;;;;;5.10;4.30;;;;;;;21.90;81.71;100042.00;5075430;28;20665;-76
2023/06/08 09:08:11;;;;;;;4.90;4.47;;;;;;;21.95;85.04;100040.88;5080227;28;20178;-77
2023/06/08 09:10:36;;;;;;;5.30;4.80;;;;;;;22.43;83.22;100035.34;5062285;28;20192;-76
2023/06/08 09:13:02;;;;;;;4.67;4.07;;;;;;;22.27;77.01;100038.06;5085371;28;20616;-76
2023/06/08 09:15:28;;;;;;;4.30;3.90;;;;;;;22.55;76.67;100025.81;5082244;28;20196;-76
2023/06/08 09:17:55;;;;;;;4.10;3.70;;;;;;;22.86;74.97;100015.94;5076814;28;20213;-74
2023/06/08 09:20:29;;;;;;;4.60;3.80;;;;;;;23.16;74.48;100015.69;5058359;28;20193;-76
2023/06/08 09:22:57;;;;;;;4.20;3.80;;;;;;;23.38;70.46;100012.50;5058108;28;20271;-75
2023/06/08 09:25:42;;;;;;;4.07;3.77;;;;;;;23.43;70.92;100010.41;5080099;28;20185;-77
2023/06/08 09:28:15;;;;;;;3.57;3.27;;;;;;;23.65;70.24;100006.31;5077286;28;20193;-77
2023/06/08 09:30:41;;;;;;;4.33;3.93;;;;;;;23.88;71.29;100006.53;5078717;28;20250;-76
2023/06/08 09:33:23;;;;;;;4.10;3.80;;;;;;;23.90;71.01;100007.25;5079001;28;20209;-76
2023/06/08 09:36:03;;;;;;;4.20;3.90;;;;;;;23.84;71.22;100005.91;5077863;28;20193;-78
2023/06/08 09:38:30;;;;;;;3.50;3.20;;;;;;;24.46;70.52;99998.09;5077678;28;20204;-77
2023/06/08 09:41:16;;;;;;;3.83;3.53;;;;;;;24.87;68.04;100001.34;5079592;28;20199;-76
2023/06/08 09:43:43;;;;;;;3.93;3.63;;;;;;;24.75;65.07;99997.81;5076839;28;20208;-76
2023/06/08 09:46:16;;;;;;;3.97;3.40;;;;;;;24.75;61.99;100003.94;5076442;28;20669;-78
2023/06/08 09:48:52;;;;;;;3.80;3.50;;;;;;;24.62;62.40;99998.66;5062393;28;20810;-75
2023/06/08 09:51:18;;;;;;;4.27;3.87;;;;;;;24.45;63.96;99996.41;5069882;28;20267;-78
2023/06/08 09:53:45;;;;;;;4.23;3.87;;;;;;;24.63;63.62;99995.06;5077859;28;20216;-75
2023/06/08 09:56:10;;;;;;;5.13;3.63;;;;;;;23.92;64.84;99997.44;5076314;28;20216;-76
2023/06/08 09:58:38;;;;;;;4.00;3.70;;;;;;;23.99;64.94;99993.44;5082936;28;20347;-77
2023/06/08 10:01:09;;;;;;;4.33;3.83;;;;;;;24.08;64.30;99985.81;5077738;28;20660;-76
2023/06/08 10:03:39;;;;;;;4.07;3.70;;;;;;;23.97;64.29;99986.56;5080336;28;20257;-77
2023/06/08 10:06:09;;;;;;;4.27;3.90;;;;;;;23.68;64.77;99987.59;5078358;28;20197;-80
2023/06/08 10:08:37;;;;;;;4.13;3.73;;;;;;;24.18;64.59;99979.78;5061208;28;20194;-79
2023/06/08 10:11:03;;;;;;;4.37;3.97;;;;;;;24.34;65.09;99979.50;5081156;28;20220;-78
2023/06/08 10:13:30;;;;;;;5.40;3.70;;;;;;;24.31;65.53;99979.72;5082684;28;20205;-77
2023/06/08 10:15:56;;;;;;;4.13;3.77;;;;;;;24.47;64.59;99979.47;5064958;28;20586;-77
2023/06/08 10:18:22;;;;;;;4.33;3.50;;;;;;;24.25;63.45;99984.59;5087347;28;20216;-79
2023/06/08 10:20:48;;;;;;;3.60;3.30;;;;;;;24.30;63.74;99983.31;5083876;28;20193;-79
2023/06/08 10:23:13;;;;;;;4.67;4.27;;;;;;;24.01;64.50;99986.25;5087202;28;20680;-78
2023/06/08 10:25:40;;;;;;;4.30;3.90;;;;;;;24.09;65.54;99979.56;5075847;28;20560;-77
2023/06/08 10:28:08;;;;;;;4.80;4.40;;;;;;;24.08;66.17;99978.72;5079357;28;20720;-78
2023/06/08 10:30:41;;;;;;;4.17;3.77;;;;;;;24.22;63.52;99975.09;5080029;28;20657;-81
2023/06/08 10:33:08;;;;;;;4.93;4.13;;;;;;;24.20;64.94;99971.72;5084634;28;20609;-78
2023/06/08 10:35:34;;;;;;;4.40;4.07;;;;;;;24.15;67.95;99977.34;5084268;28;20238;-78
2023/06/08 10:38:09;;;;;;;4.77;4.30;;;;;;;24.45;68.48;99972.59;5080187;28;20206;-79
2023/06/08 10:40:46;;;;;;;4.67;4.27;;;;;;;24.45;67.58;99965.53;5080074;28;20193;-79
2023/06/08 10:43:11;;;;;;;5.50;4.53;;;;;;;24.35;66.89;99975.09;5084376;28;20212;-79
2023/06/08 10:45:39;;;;;;;4.60;4.20;;;;;;;24.43;67.56;99958.66;5081906;28;20181;-81
2023/06/08 10:48:15;;;;;;;5.23;4.50;;;;;;;24.47;67.12;99960.09;5064132;28;20216;-78
2023/06/08 10:50:51;;;;;;;5.07;4.57;;;;;;;24.58;67.29;99956.69;5076775;28;20180;-82
2023/06/08 10:53:48;;;;;;;5.07;4.67;;;;;;;24.48;67.47;99945.94;5076853;28;20209;-80
2023/06/08 10:56:16;;;;;;;4.63;4.20;;;;;;;24.48;68.16;99944.13;5067902;28;20201;-79
2023/06/08 10:58:52;;;;;;;4.57;4.20;;;;;;;24.62;67.31;99942.28;5086541;28;20239;-80
2023/06/08 11:01:19;;;;;;;4.40;4.10;;;;;;;24.64;67.00;99941.19;5083143;28;20598;-77
2023/06/08 11:03:48;;;;;;;4.50;4.10;;;;;;;24.87;67.79;99944.00;5080913;28;20251;-78
2023/06/08 11:06:14;;;;;;;4.30;3.80;;;;;;;24.76;64.98;99943.91;5061366;28;20181;-78
2023/06/08 11:08:39;;;;;;;4.77;3.87;;;;;;;24.87;66.77;99946.63;5079029;28;20374;-78
2023/06/08 11:11:05;;;;;;;4.77;4.43;;;;;;;24.74;66.56;99946.69;5076180;28;20299;-77
2023/06/08 11:13:30;;;;;;;4.70;4.20;;;;;;;24.76;65.28;99943.91;5083360;28;20305;-78
2023/06/08 11:15:56;;;;;;;5.30;4.10;;;;;;;24.73;63.76;99933.59;5085973;28;20303;-78
2023/06/08 11:18:22;;;;;;;4.27;3.87;;;;;;;24.83;64.05;99941.66;5084407;28;20269;-78
2023/06/08 11:20:48;;;;;;;4.73;3.90;;;;;;;25.08;64.12;99925.66;5059744;28;20649;-77
2023/06/08 11:23:13;;;;;;;4.77;4.03;;;;;;;25.13;63.47;99922.63;5065684;28;20210;-78